Terminal Aerodrome Forecast
Issued by NWS

Home | Current Version | Previous Version | Text Only | Print | Product List | Glossary On
Versions: 1 2 3 4 5 6 7 8 9 10 11 12 13 14
000
FTUS45 KRIW 061740
TAFWRL
TAF
KWRL 061740Z 0618/0718 VRB04KT P6SM SCT020 BKN050
     FM062100 VRB05KT P6SM VCTS FEW025 BKN060CB
     FM070200 14005KT P6SM SCT060
     FM070900 15005KT P6SM FEW080
     FM071600 VRB03KT P6SM SCT080 SCT120=

USA.gov is the U.S. government's official web portal to all federal, state and local government web resources and services.